sensor_id;sensor_type;location;lat;lon;timestamp;temperature;humidity
63051;SHT30;49136;47.416;19.402;2022-07-29T00:01:04;22.24;63.23
63051;SHT30;49136;47.416;19.402;2022-07-29T00:03:29;22.29;63.11
63051;SHT30;49136;47.416;19.402;2022-07-29T00:05:55;22.20;63.68
63051;SHT30;49136;47.416;19.402;2022-07-29T00:08:20;22.18;63.43
63051;SHT30;49136;47.416;19.402;2022-07-29T00:10:46;22.18;63.35
63051;SHT30;49136;47.416;19.402;2022-07-29T00:13:11;22.07;63.70
63051;SHT30;49136;47.416;19.402;2022-07-29T00:15:37;22.08;63.87
63051;SHT30;49136;47.416;19.402;2022-07-29T00:18:02;22.15;63.38
63051;SHT30;49136;47.416;19.402;2022-07-29T00:20:27;22.08;63.39
63051;SHT30;49136;47.416;19.402;2022-07-29T00:22:53;22.01;63.93
63051;SHT30;49136;47.416;19.402;2022-07-29T00:25:19;22.01;64.15
63051;SHT30;49136;47.416;19.402;2022-07-29T00:27:44;21.90;64.30
63051;SHT30;49136;47.416;19.402;2022-07-29T00:30:11;21.83;64.50
63051;SHT30;49136;47.416;19.402;2022-07-29T00:32:37;21.77;64.66
63051;SHT30;49136;47.416;19.402;2022-07-29T00:35:03;21.77;64.81
63051;SHT30;49136;47.416;19.402;2022-07-29T00:37:47;21.66;64.90
63051;SHT30;49136;47.416;19.402;2022-07-29T00:40:12;21.70;65.22
63051;SHT30;49136;47.416;19.402;2022-07-29T00:42:45;21.72;64.81
63051;SHT30;49136;47.416;19.402;2022-07-29T00:45:12;21.62;65.39
63051;SHT30;49136;47.416;19.402;2022-07-29T00:47:37;21.73;64.55
63051;SHT30;49136;47.416;19.402;2022-07-29T00:50:04;21.72;64.78
63051;SHT30;49136;47.416;19.402;2022-07-29T00:52:30;21.72;65.06
63051;SHT30;49136;47.416;19.402;2022-07-29T00:54:56;21.63;65.92
63051;SHT30;49136;47.416;19.402;2022-07-29T00:57:21;21.56;65.82
63051;SHT30;49136;47.416;19.402;2022-07-29T00:59:47;21.48;66.17
63051;SHT30;49136;47.416;19.402;2022-07-29T01:02:12;21.46;66.14
63051;SHT30;49136;47.416;19.402;2022-07-29T01:04:38;21.48;66.18
63051;SHT30;49136;47.416;19.402;2022-07-29T01:07:05;21.59;65.86
63051;SHT30;49136;47.416;19.402;2022-07-29T01:09:32;21.70;65.63
63051;SHT30;49136;47.416;19.402;2022-07-29T01:11:58;21.62;65.81
63051;SHT30;49136;47.416;19.402;2022-07-29T01:14:25;21.53;66.62
63051;SHT30;49136;47.416;19.402;2022-07-29T01:17:27;21.46;66.56
63051;SHT30;49136;47.416;19.402;2022-07-29T01:20:07;21.53;66.33
63051;SHT30;49136;47.416;19.402;2022-07-29T01:30:14;21.60;66.03
63051;SHT30;49136;47.416;19.402;2022-07-29T01:32:40;21.59;66.18
63051;SHT30;49136;47.416;19.402;2022-07-29T01:40:39;21.42;66.74
63051;SHT30;49136;47.416;19.402;2022-07-29T01:43:18;21.37;66.78
63051;SHT30;49136;47.416;19.402;2022-07-29T01:45:48;21.37;66.66
63051;SHT30;49136;47.416;19.402;2022-07-29T01:48:19;21.32;67.36
63051;SHT30;49136;47.416;19.402;2022-07-29T01:50:49;21.41;66.69
63051;SHT30;49136;47.416;19.402;2022-07-29T01:53:23;21.38;66.78
63051;SHT30;49136;47.416;19.402;2022-07-29T01:55:50;21.49;66.35
63051;SHT30;49136;47.416;19.402;2022-07-29T01:58:18;21.51;66.47
63051;SHT30;49136;47.416;19.402;2022-07-29T02:00:45;21.41;67.01
63051;SHT30;49136;47.416;19.402;2022-07-29T02:03:12;21.48;66.78
63051;SHT30;49136;47.416;19.402;2022-07-29T02:05:41;21.52;66.70
63051;SHT30;49136;47.416;19.402;2022-07-29T02:08:08;21.38;66.91
63051;SHT30;49136;47.416;19.402;2022-07-29T02:10:35;21.28;67.30
63051;SHT30;49136;47.416;19.402;2022-07-29T02:13:02;21.31;67.33
63051;SHT30;49136;47.416;19.402;2022-07-29T02:15:31;21.34;67.05
63051;SHT30;49136;47.416;19.402;2022-07-29T02:18:11;21.31;67.21
63051;SHT30;49136;47.416;19.402;2022-07-29T02:20:38;21.31;67.46
63051;SHT30;49136;47.416;19.402;2022-07-29T02:23:07;21.39;67.29
63051;SHT30;49136;47.416;19.402;2022-07-29T02:25:35;21.34;67.99
63051;SHT30;49136;47.416;19.402;2022-07-29T02:28:02;21.32;67.76
63051;SHT30;49136;47.416;19.402;2022-07-29T02:30:30;21.21;68.04
63051;SHT30;49136;47.416;19.402;2022-07-29T02:32:56;21.20;67.55
63051;SHT30;49136;47.416;19.402;2022-07-29T02:35:22;21.21;68.06
63051;SHT30;49136;47.416;19.402;2022-07-29T02:37:49;20.99;69.61
63051;SHT30;49136;47.416;19.402;2022-07-29T02:40:37;20.90;68.57
63051;SHT30;49136;47.416;19.402;2022-07-29T02:43:05;20.93;69.05
63051;SHT30;49136;47.416;19.402;2022-07-29T02:45:33;20.87;69.15
63051;SHT30;49136;47.416;19.402;2022-07-29T02:48:00;21.01;68.50
63051;SHT30;49136;47.416;19.402;2022-07-29T02:50:35;21.00;68.95
63051;SHT30;49136;47.416;19.402;2022-07-29T02:53:25;20.92;69.04
63051;SHT30;49136;47.416;19.402;2022-07-29T02:55:56;20.89;68.99
63051;SHT30;49136;47.416;19.402;2022-07-29T02:58:33;20.90;68.88
63051;SHT30;49136;47.416;19.402;2022-07-29T03:01:14;20.83;69.17
63051;SHT30;49136;47.416;19.402;2022-07-29T03:03:42;20.73;69.41
63051;SHT30;49136;47.416;19.402;2022-07-29T03:06:09;20.72;69.40
63051;SHT30;49136;47.416;19.402;2022-07-29T03:08:37;20.66;69.42
63051;SHT30;49136;47.416;19.402;2022-07-29T03:11:03;20.71;69.42
63051;SHT30;49136;47.416;19.402;2022-07-29T03:13:30;20.66;69.49
63051;SHT30;49136;47.416;19.402;2022-07-29T03:15:57;20.52;70.18
63051;SHT30;49136;47.416;19.402;2022-07-29T03:18:23;20.42;70.36
63051;SHT30;49136;47.416;19.402;2022-07-29T03:20:49;20.28;70.68
63051;SHT30;49136;47.416;19.402;2022-07-29T03:23:19;20.16;71.06
63051;SHT30;49136;47.416;19.402;2022-07-29T03:25:45;20.13;71.22
63051;SHT30;49136;47.416;19.402;2022-07-29T03:28:10;20.09;71.35
63051;SHT30;49136;47.416;19.402;2022-07-29T03:30:36;20.07;71.26
63051;SHT30;49136;47.416;19.402;2022-07-29T03:33:01;20.05;71.29
63051;SHT30;49136;47.416;19.402;2022-07-29T03:35:27;19.97;71.96
63051;SHT30;49136;47.416;19.402;2022-07-29T03:37:52;19.96;71.71
63051;SHT30;49136;47.416;19.402;2022-07-29T03:40:40;19.96;71.62
63051;SHT30;49136;47.416;19.402;2022-07-29T03:43:07;19.96;71.96
63051;SHT30;49136;47.416;19.402;2022-07-29T03:45:33;19.93;72.21
63051;SHT30;49136;47.416;19.402;2022-07-29T03:48:03;19.96;72.05
63051;SHT30;49136;47.416;19.402;2022-07-29T03:50:30;20.01;71.74
63051;SHT30;49136;47.416;19.402;2022-07-29T03:52:56;20.06;71.81
63051;SHT30;49136;47.416;19.402;2022-07-29T03:55:23;20.07;71.59
63051;SHT30;49136;47.416;19.402;2022-07-29T03:57:49;20.17;71.88
63051;SHT30;49136;47.416;19.402;2022-07-29T04:00:15;20.16;71.17
63051;SHT30;49136;47.416;19.402;2022-07-29T04:02:41;20.25;71.63
63051;SHT30;49136;47.416;19.402;2022-07-29T04:05:12;20.33;70.68
63051;SHT30;49136;47.416;19.402;2022-07-29T04:07:38;20.30;70.84
63051;SHT30;49136;47.416;19.402;2022-07-29T04:10:04;20.38;70.77
63051;SHT30;49136;47.416;19.402;2022-07-29T04:12:29;20.45;70.85
63051;SHT30;49136;47.416;19.402;2022-07-29T04:14:55;20.48;70.24
63051;SHT30;49136;47.416;19.402;2022-07-29T04:17:20;20.48;70.24
63051;SHT30;49136;47.416;19.402;2022-07-29T04:19:45;20.59;69.95
63051;SHT30;49136;47.416;19.402;2022-07-29T04:22:11;20.64;69.85
63051;SHT30;49136;47.416;19.402;2022-07-29T04:24:36;20.69;69.63
63051;SHT30;49136;47.416;19.402;2022-07-29T04:27:01;20.79;69.58
63051;SHT30;49136;47.416;19.402;2022-07-29T04:29:27;20.73;69.70
63051;SHT30;49136;47.416;19.402;2022-07-29T04:31:52;20.79;69.59
63051;SHT30;49136;47.416;19.402;2022-07-29T04:34:18;20.93;69.06
63051;SHT30;49136;47.416;19.402;2022-07-29T04:36:43;20.97;69.19
63051;SHT30;49136;47.416;19.402;2022-07-29T04:39:09;21.08;69.04
63051;SHT30;49136;47.416;19.402;2022-07-29T04:41:35;21.15;68.32
63051;SHT30;49136;47.416;19.402;2022-07-29T04:44:00;21.12;68.36
63051;SHT30;49136;47.416;19.402;2022-07-29T04:46:30;21.20;68.40
63051;SHT30;49136;47.416;19.402;2022-07-29T04:48:55;21.25;68.15
63051;SHT30;49136;47.416;19.402;2022-07-29T04:51:20;21.24;68.08
63051;SHT30;49136;47.416;19.402;2022-07-29T04:53:46;21.41;67.40
63051;SHT30;49136;47.416;19.402;2022-07-29T04:56:11;21.48;67.14
63051;SHT30;49136;47.416;19.402;2022-07-29T04:58:37;21.59;67.33
63051;SHT30;49136;47.416;19.402;2022-07-29T05:01:03;21.79;66.25
63051;SHT30;49136;47.416;19.402;2022-07-29T05:03:28;21.77;66.56
63051;SHT30;49136;47.416;19.402;2022-07-29T05:05:54;21.85;66.61
63051;SHT30;49136;47.416;19.402;2022-07-29T05:08:19;21.85;66.72
63051;SHT30;49136;47.416;19.402;2022-07-29T05:10:45;22.00;66.38
63051;SHT30;49136;47.416;19.402;2022-07-29T05:13:11;22.44;65.33
63051;SHT30;49136;47.416;19.402;2022-07-29T05:15:36;22.49;64.61
63051;SHT30;49136;47.416;19.402;2022-07-29T05:18:02;22.83;64.36
63051;SHT30;49136;47.416;19.402;2022-07-29T05:20:28;22.69;64.71
63051;SHT30;49136;47.416;19.402;2022-07-29T05:22:59;22.98;63.90
63051;SHT30;49136;47.416;19.402;2022-07-29T05:25:25;23.12;62.42
63051;SHT30;49136;47.416;19.402;2022-07-29T05:27:51;23.35;62.25
63051;SHT30;49136;47.416;19.402;2022-07-29T05:30:17;23.50;62.59
63051;SHT30;49136;47.416;19.402;2022-07-29T05:32:43;23.75;61.85
63051;SHT30;49136;47.416;19.402;2022-07-29T05:35:08;23.78;60.94
63051;SHT30;49136;47.416;19.402;2022-07-29T05:37:34;24.19;60.17
63051;SHT30;49136;47.416;19.402;2022-07-29T05:39:59;24.47;59.02
63051;SHT30;49136;47.416;19.402;2022-07-29T05:42:25;24.78;59.13
63051;SHT30;49136;47.416;19.402;2022-07-29T05:44:51;25.41;58.37
63051;SHT30;49136;47.416;19.402;2022-07-29T05:47:16;25.09;58.29
63051;SHT30;49136;47.416;19.402;2022-07-29T05:49:42;25.05;58.24
63051;SHT30;49136;47.416;19.402;2022-07-29T05:52:08;24.81;58.47
63051;SHT30;49136;47.416;19.402;2022-07-29T05:54:34;25.05;58.73
63051;SHT30;49136;47.416;19.402;2022-07-29T05:57:00;25.14;57.51
63051;SHT30;49136;47.416;19.402;2022-07-29T05:59:25;25.91;57.57
63051;SHT30;49136;47.416;19.402;2022-07-29T06:01:50;25.81;56.58
63051;SHT30;49136;47.416;19.402;2022-07-29T06:04:16;25.56;56.82
63051;SHT30;49136;47.416;19.402;2022-07-29T06:06:41;25.78;56.38
63051;SHT30;49136;47.416;19.402;2022-07-29T06:09:06;25.96;56.84
63051;SHT30;49136;47.416;19.402;2022-07-29T06:11:33;25.89;55.86
63051;SHT30;49136;47.416;19.402;2022-07-29T06:13:58;25.64;56.84
63051;SHT30;49136;47.416;19.402;2022-07-29T06:16:23;26.27;56.41
63051;SHT30;49136;47.416;19.402;2022-07-29T06:18:49;26.22;56.36
63051;SHT30;49136;47.416;19.402;2022-07-29T06:21:14;26.40;55.29
63051;SHT30;49136;47.416;19.402;2022-07-29T06:23:39;26.71;55.87
63051;SHT30;49136;47.416;19.402;2022-07-29T06:26:05;26.75;55.39
63051;SHT30;49136;47.416;19.402;2022-07-29T06:28:32;26.43;55.36
63051;SHT30;49136;47.416;19.402;2022-07-29T06:30:57;26.40;55.41
63051;SHT30;49136;47.416;19.402;2022-07-29T06:33:23;26.76;55.92
63051;SHT30;49136;47.416;19.402;2022-07-29T06:35:49;26.69;55.17
63051;SHT30;49136;47.416;19.402;2022-07-29T06:38:16;27.16;54.74
63051;SHT30;49136;47.416;19.402;2022-07-29T06:40:43;27.19;55.95
63051;SHT30;49136;47.416;19.402;2022-07-29T06:46:05;28.18;54.86
63051;SHT30;49136;47.416;19.402;2022-07-29T06:48:31;27.81;54.06
63051;SHT30;49136;47.416;19.402;2022-07-29T06:50:57;27.23;55.30
63051;SHT30;49136;47.416;19.402;2022-07-29T06:53:23;27.76;54.82
63051;SHT30;49136;47.416;19.402;2022-07-29T06:55:49;27.75;54.09
63051;SHT30;49136;47.416;19.402;2022-07-29T06:58:14;28.02;55.43
63051;SHT30;49136;47.416;19.402;2022-07-29T07:00:43;28.02;54.78
63051;SHT30;49136;47.416;19.402;2022-07-29T07:03:09;28.36;55.68
63051;SHT30;49136;47.416;19.402;2022-07-29T07:05:34;28.48;53.74
63051;SHT30;49136;47.416;19.402;2022-07-29T07:08:00;28.40;54.01
63051;SHT30;49136;47.416;19.402;2022-07-29T07:10:25;28.47;53.63
63051;SHT30;49136;47.416;19.402;2022-07-29T07:12:50;28.38;53.36
63051;SHT30;49136;47.416;19.402;2022-07-29T07:15:16;28.10;53.39
63051;SHT30;49136;47.416;19.402;2022-07-29T07:17:41;28.47;53.22
63051;SHT30;49136;47.416;19.402;2022-07-29T07:20:07;28.87;53.19
63051;SHT30;49136;47.416;19.402;2022-07-29T07:22:33;28.63;53.15
63051;SHT30;49136;47.416;19.402;2022-07-29T07:24:58;28.73;53.52
63051;SHT30;49136;47.416;19.402;2022-07-29T07:27:23;28.86;53.27
63051;SHT30;49136;47.416;19.402;2022-07-29T07:29:49;29.07;51.91
63051;SHT30;49136;47.416;19.402;2022-07-29T07:32:14;29.15;53.37
63051;SHT30;49136;47.416;19.402;2022-07-29T07:34:42;29.63;53.14
63051;SHT30;49136;47.416;19.402;2022-07-29T07:37:08;28.80;52.55
63051;SHT30;49136;47.416;19.402;2022-07-29T07:39:34;29.42;54.14
63051;SHT30;49136;47.416;19.402;2022-07-29T07:41:59;29.00;52.27
63051;SHT30;49136;47.416;19.402;2022-07-29T07:44:24;29.22;54.80
63051;SHT30;49136;47.416;19.402;2022-07-29T07:46:50;29.30;54.22
63051;SHT30;49136;47.416;19.402;2022-07-29T07:49:15;29.22;50.99
63051;SHT30;49136;47.416;19.402;2022-07-29T07:51:41;29.63;54.02
63051;SHT30;49136;47.416;19.402;2022-07-29T07:54:07;29.63;52.28
63051;SHT30;49136;47.416;19.402;2022-07-29T07:56:32;29.52;50.88
63051;SHT30;49136;47.416;19.402;2022-07-29T07:58:58;29.35;50.48
63051;SHT30;49136;47.416;19.402;2022-07-29T08:01:23;29.32;51.95
63051;SHT30;49136;47.416;19.402;2022-07-29T08:03:49;30.04;52.76
63051;SHT30;49136;47.416;19.402;2022-07-29T08:06:15;29.93;51.44
63051;SHT30;49136;47.416;19.402;2022-07-29T08:08:41;29.70;50.86
63051;SHT30;49136;47.416;19.402;2022-07-29T08:11:06;30.13;51.22
63051;SHT30;49136;47.416;19.402;2022-07-29T08:13:32;29.72;50.21
63051;SHT30;49136;47.416;19.402;2022-07-29T08:15:58;29.83;50.39
63051;SHT30;49136;47.416;19.402;2022-07-29T08:18:29;30.15;50.81
63051;SHT30;49136;47.416;19.402;2022-07-29T08:20:56;30.39;49.74
63051;SHT30;49136;47.416;19.402;2022-07-29T08:23:22;30.11;50.65
63051;SHT30;49136;47.416;19.402;2022-07-29T08:25:52;30.39;50.70
63051;SHT30;49136;47.416;19.402;2022-07-29T08:28:17;30.84;48.76
63051;SHT30;49136;47.416;19.402;2022-07-29T08:30:42;30.28;49.19
63051;SHT30;49136;47.416;19.402;2022-07-29T08:33:08;30.74;50.03
63051;SHT30;49136;47.416;19.402;2022-07-29T08:35:33;31.07;49.38
63051;SHT30;49136;47.416;19.402;2022-07-29T08:37:59;31.22;48.05
63051;SHT30;49136;47.416;19.402;2022-07-29T08:40:24;31.28;47.51
63051;SHT30;49136;47.416;19.402;2022-07-29T08:42:50;31.06;47.95
63051;SHT30;49136;47.416;19.402;2022-07-29T08:45:16;31.43;46.96
63051;SHT30;49136;47.416;19.402;2022-07-29T08:47:44;31.21;49.32
63051;SHT30;49136;47.416;19.402;2022-07-29T08:50:10;31.69;51.63
63051;SHT30;49136;47.416;19.402;2022-07-29T08:52:38;31.63;47.26
63051;SHT30;49136;47.416;19.402;2022-07-29T08:55:05;31.92;46.34
63051;SHT30;49136;47.416;19.402;2022-07-29T08:57:32;32.04;45.64
63051;SHT30;49136;47.416;19.402;2022-07-29T09:00:00;31.90;45.42
63051;SHT30;49136;47.416;19.402;2022-07-29T09:02:28;31.80;44.76
63051;SHT30;49136;47.416;19.402;2022-07-29T09:04:54;31.72;46.20
63051;SHT30;49136;47.416;19.402;2022-07-29T09:07:19;31.57;47.26
63051;SHT30;49136;47.416;19.402;2022-07-29T09:09:45;31.94;46.10
63051;SHT30;49136;47.416;19.402;2022-07-29T09:12:11;31.51;44.95
63051;SHT30;49136;47.416;19.402;2022-07-29T09:14:38;31.95;45.26
63051;SHT30;49136;47.416;19.402;2022-07-29T09:17:03;31.92;44.18
63051;SHT30;49136;47.416;19.402;2022-07-29T09:19:31;32.28;43.38
63051;SHT30;49136;47.416;19.402;2022-07-29T09:21:59;32.28;44.78
63051;SHT30;49136;47.416;19.402;2022-07-29T09:24:47;32.43;42.85
63051;SHT30;49136;47.416;19.402;2022-07-29T09:27:24;32.39;42.35
63051;SHT30;49136;47.416;19.402;2022-07-29T09:30:10;32.85;41.96
63051;SHT30;49136;47.416;19.402;2022-07-29T09:33:01;32.57;41.65
63051;SHT30;49136;47.416;19.402;2022-07-29T09:35:28;32.77;43.57
63051;SHT30;49136;47.416;19.402;2022-07-29T09:37:54;32.76;41.42
63051;SHT30;49136;47.416;19.402;2022-07-29T09:40:25;33.02;41.14
63051;SHT30;49136;47.416;19.402;2022-07-29T09:42:51;32.46;41.42
63051;SHT30;49136;47.416;19.402;2022-07-29T09:45:33;32.91;42.52
63051;SHT30;49136;47.416;19.402;2022-07-29T09:48:13;32.90;39.81
63051;SHT30;49136;47.416;19.402;2022-07-29T09:50:40;32.95;41.54
63051;SHT30;49136;47.416;19.402;2022-07-29T09:53:05;32.64;42.61
63051;SHT30;49136;47.416;19.402;2022-07-29T09:55:31;32.44;41.78
63051;SHT30;49136;47.416;19.402;2022-07-29T09:58:20;32.67;43.61
63051;SHT30;49136;47.416;19.402;2022-07-29T10:00:46;32.53;40.62
63051;SHT30;49136;47.416;19.402;2022-07-29T10:03:13;32.42;40.96
63051;SHT30;49136;47.416;19.402;2022-07-29T10:05:39;32.90;44.46
63051;SHT30;49136;47.416;19.402;2022-07-29T10:08:05;33.39;45.14
63051;SHT30;49136;47.416;19.402;2022-07-29T10:10:34;33.11;40.43
63051;SHT30;49136;47.416;19.402;2022-07-29T10:13:01;33.14;42.58
63051;SHT30;49136;47.416;19.402;2022-07-29T10:15:30;33.59;40.09
63051;SHT30;49136;47.416;19.402;2022-07-29T10:17:57;33.67;43.07
63051;SHT30;49136;47.416;19.402;2022-07-29T10:20:24;33.22;38.77
63051;SHT30;49136;47.416;19.402;2022-07-29T10:22:51;33.25;39.88
63051;SHT30;49136;47.416;19.402;2022-07-29T10:25:17;33.74;40.73
63051;SHT30;49136;47.416;19.402;2022-07-29T10:27:44;34.39;38.26
63051;SHT30;49136;47.416;19.402;2022-07-29T10:30:11;34.35;38.76
63051;SHT30;49136;47.416;19.402;2022-07-29T10:43:55;33.76;39.01
63051;SHT30;49136;47.416;19.402;2022-07-29T10:46:22;33.35;36.34
63051;SHT30;49136;47.416;19.402;2022-07-29T10:49:06;33.46;38.45
63051;SHT30;49136;47.416;19.402;2022-07-29T10:59:48;33.22;40.55
63051;SHT30;49136;47.416;19.402;2022-07-29T11:07:35;32.28;41.87
63051;SHT30;49136;47.416;19.402;2022-07-29T11:15:20;34.18;37.95
63051;SHT30;49136;47.416;19.402;2022-07-29T11:20:38;34.99;37.97
63051;SHT30;49136;47.416;19.402;2022-07-29T11:26:20;33.56;38.38
63051;SHT30;49136;47.416;19.402;2022-07-29T11:31:37;32.44;40.16
63051;SHT30;49136;47.416;19.402;2022-07-29T11:34:29;32.40;40.56
63051;SHT30;49136;47.416;19.402;2022-07-29T11:39:37;32.66;40.47
63051;SHT30;49136;47.416;19.402;2022-07-29T11:45:05;32.85;40.68
63051;SHT30;49136;47.416;19.402;2022-07-29T11:47:33;33.39;39.17
63051;SHT30;49136;47.416;19.402;2022-07-29T11:50:01;32.81;40.19
63051;SHT30;49136;47.416;19.402;2022-07-29T11:52:35;32.39;40.16
63051;SHT30;49136;47.416;19.402;2022-07-29T11:55:04;32.17;38.90
63051;SHT30;49136;47.416;19.402;2022-07-29T11:57:30;32.40;40.10
63051;SHT30;49136;47.416;19.402;2022-07-29T11:59:57;32.70;39.82
63051;SHT30;49136;47.416;19.402;2022-07-29T12:02:23;33.02;42.67
63051;SHT30;49136;47.416;19.402;2022-07-29T12:04:54;32.90;40.21
63051;SHT30;49136;47.416;19.402;2022-07-29T12:07:30;33.08;41.05
63051;SHT30;49136;47.416;19.402;2022-07-29T12:09:56;32.61;39.60
63051;SHT30;49136;47.416;19.402;2022-07-29T12:12:22;32.43;39.53
63051;SHT30;49136;47.416;19.402;2022-07-29T12:14:48;32.49;40.84
63051;SHT30;49136;47.416;19.402;2022-07-29T12:17:33;32.43;43.68
63051;SHT30;49136;47.416;19.402;2022-07-29T12:20:01;32.35;44.01
63051;SHT30;49136;47.416;19.402;2022-07-29T12:22:33;32.35;42.09
63051;SHT30;49136;47.416;19.402;2022-07-29T12:25:13;32.33;40.62
63051;SHT30;49136;47.416;19.402;2022-07-29T12:27:41;32.48;40.74
63051;SHT30;49136;47.416;19.402;2022-07-29T12:30:10;32.40;40.73
63051;SHT30;49136;47.416;19.402;2022-07-29T12:32:38;32.66;41.13
63051;SHT30;49136;47.416;19.402;2022-07-29T12:35:30;33.12;40.15
63051;SHT30;49136;47.416;19.402;2022-07-29T12:37:56;32.83;40.52
63051;SHT30;49136;47.416;19.402;2022-07-29T12:40:22;32.77;39.97
63051;SHT30;49136;47.416;19.402;2022-07-29T12:45:38;33.47;39.79
63051;SHT30;49136;47.416;19.402;2022-07-29T12:48:05;34.12;38.53
63051;SHT30;49136;47.416;19.402;2022-07-29T12:50:31;34.35;40.35
63051;SHT30;49136;47.416;19.402;2022-07-29T12:53:11;34.36;38.15
63051;SHT30;49136;47.416;19.402;2022-07-29T12:55:44;34.84;39.29
63051;SHT30;49136;47.416;19.402;2022-07-29T12:58:10;35.54;36.88
63051;SHT30;49136;47.416;19.402;2022-07-29T13:00:36;35.84;38.40
63051;SHT30;49136;47.416;19.402;2022-07-29T13:03:01;36.09;38.42
63051;SHT30;49136;47.416;19.402;2022-07-29T13:05:44;35.60;35.75
63051;SHT30;49136;47.416;19.402;2022-07-29T13:08:14;35.76;36.89
63051;SHT30;49136;47.416;19.402;2022-07-29T13:10:40;35.92;35.71
63051;SHT30;49136;47.416;19.402;2022-07-29T13:13:10;35.68;37.40
63051;SHT30;49136;47.416;19.402;2022-07-29T13:15:43;35.65;37.61
63051;SHT30;49136;47.416;19.402;2022-07-29T13:18:32;35.61;38.12
63051;SHT30;49136;47.416;19.402;2022-07-29T13:21:10;35.85;36.08
63051;SHT30;49136;47.416;19.402;2022-07-29T13:23:36;35.39;39.47
63051;SHT30;49136;47.416;19.402;2022-07-29T13:26:09;35.33;36.11
63051;SHT30;49136;47.416;19.402;2022-07-29T13:28:35;35.68;36.53
63051;SHT30;49136;47.416;19.402;2022-07-29T13:31:01;35.20;36.74
63051;SHT30;49136;47.416;19.402;2022-07-29T13:33:26;35.28;36.00
63051;SHT30;49136;47.416;19.402;2022-07-29T13:35:52;35.03;35.23
63051;SHT30;49136;47.416;19.402;2022-07-29T13:38:18;35.03;35.50
63051;SHT30;49136;47.416;19.402;2022-07-29T13:40:43;35.35;37.33
63051;SHT30;49136;47.416;19.402;2022-07-29T13:43:10;35.85;37.11
63051;SHT30;49136;47.416;19.402;2022-07-29T13:45:35;35.82;35.18
63051;SHT30;49136;47.416;19.402;2022-07-29T13:48:01;35.85;39.19
63051;SHT30;49136;47.416;19.402;2022-07-29T13:50:26;36.29;35.87
63051;SHT30;49136;47.416;19.402;2022-07-29T13:52:52;35.88;37.11
63051;SHT30;49136;47.416;19.402;2022-07-29T13:55:18;35.80;37.75
63051;SHT30;49136;47.416;19.402;2022-07-29T13:57:43;36.06;36.31
63051;SHT30;49136;47.416;19.402;2022-07-29T14:00:09;35.94;38.47
63051;SHT30;49136;47.416;19.402;2022-07-29T14:02:35;36.33;34.73
63051;SHT30;49136;47.416;19.402;2022-07-29T14:05:00;36.26;32.92
63051;SHT30;49136;47.416;19.402;2022-07-29T14:07:26;35.78;35.17
63051;SHT30;49136;47.416;19.402;2022-07-29T14:09:51;35.46;35.00
63051;SHT30;49136;47.416;19.402;2022-07-29T14:12:17;35.09;34.69
63051;SHT30;49136;47.416;19.402;2022-07-29T14:14:42;35.09;35.28
63051;SHT30;49136;47.416;19.402;2022-07-29T14:17:08;35.13;37.77
63051;SHT30;49136;47.416;19.402;2022-07-29T14:19:34;35.19;36.74
63051;SHT30;49136;47.416;19.402;2022-07-29T14:22:05;34.81;35.39
63051;SHT30;49136;47.416;19.402;2022-07-29T14:24:31;35.39;37.63
63051;SHT30;49136;47.416;19.402;2022-07-29T14:26:56;35.46;37.28
63051;SHT30;49136;47.416;19.402;2022-07-29T14:29:22;35.44;37.13
63051;SHT30;49136;47.416;19.402;2022-07-29T14:31:48;35.49;36.31
63051;SHT30;49136;47.416;19.402;2022-07-29T14:34:13;35.73;34.95
63051;SHT30;49136;47.416;19.402;2022-07-29T14:36:41;35.74;34.87
63051;SHT30;49136;47.416;19.402;2022-07-29T14:39:06;36.11;36.99
63051;SHT30;49136;47.416;19.402;2022-07-29T14:41:32;36.15;34.80
63051;SHT30;49136;47.416;19.402;2022-07-29T14:43:57;36.06;35.72
63051;SHT30;49136;47.416;19.402;2022-07-29T14:46:26;36.35;36.98
63051;SHT30;49136;47.416;19.402;2022-07-29T14:48:51;36.55;35.53
63051;SHT30;49136;47.416;19.402;2022-07-29T14:51:16;36.35;35.66
63051;SHT30;49136;47.416;19.402;2022-07-29T14:53:42;35.81;36.22
63051;SHT30;49136;47.416;19.402;2022-07-29T14:56:08;35.36;38.64
63051;SHT30;49136;47.416;19.402;2022-07-29T14:58:34;35.60;35.44
63051;SHT30;49136;47.416;19.402;2022-07-29T15:00:59;35.65;37.12
63051;SHT30;49136;47.416;19.402;2022-07-29T15:03:25;35.81;36.34
63051;SHT30;49136;47.416;19.402;2022-07-29T15:05:50;36.09;36.02
63051;SHT30;49136;47.416;19.402;2022-07-29T15:08:16;36.13;35.58
63051;SHT30;49136;47.416;19.402;2022-07-29T15:10:42;35.63;37.17
63051;SHT30;49136;47.416;19.402;2022-07-29T15:13:07;35.44;36.72
63051;SHT30;49136;47.416;19.402;2022-07-29T15:15:33;35.47;36.09
63051;SHT30;49136;47.416;19.402;2022-07-29T15:17:58;34.70;35.37
63051;SHT30;49136;47.416;19.402;2022-07-29T15:20:23;35.23;35.59
63051;SHT30;49136;47.416;19.402;2022-07-29T15:22:52;35.09;36.95
63051;SHT30;49136;47.416;19.402;2022-07-29T15:25:18;34.85;38.56
63051;SHT30;49136;47.416;19.402;2022-07-29T15:27:43;35.03;36.93
63051;SHT30;49136;47.416;19.402;2022-07-29T15:30:09;35.13;39.54
63051;SHT30;49136;47.416;19.402;2022-07-29T15:32:35;34.88;37.06
63051;SHT30;49136;47.416;19.402;2022-07-29T15:35:00;34.60;37.15
63051;SHT30;49136;47.416;19.402;2022-07-29T15:37:26;34.60;36.25
63051;SHT30;49136;47.416;19.402;2022-07-29T15:39:53;34.67;37.59
63051;SHT30;49136;47.416;19.402;2022-07-29T15:42:18;34.19;36.30
63051;SHT30;49136;47.416;19.402;2022-07-29T15:44:44;34.20;37.89
63051;SHT30;49136;47.416;19.402;2022-07-29T15:47:09;34.04;36.40
63051;SHT30;49136;47.416;19.402;2022-07-29T15:49:37;34.15;37.93
63051;SHT30;49136;47.416;19.402;2022-07-29T15:52:05;34.23;39.30
63051;SHT30;49136;47.416;19.402;2022-07-29T15:54:35;34.20;37.51
63051;SHT30;49136;47.416;19.402;2022-07-29T15:57:01;34.09;37.70
63051;SHT30;49136;47.416;19.402;2022-07-29T15:59:27;33.94;37.65
63051;SHT30;49136;47.416;19.402;2022-07-29T16:01:52;34.11;37.39
63051;SHT30;49136;47.416;19.402;2022-07-29T16:04:18;33.85;38.32
63051;SHT30;49136;47.416;19.402;2022-07-29T16:06:44;33.71;38.76
63051;SHT30;49136;47.416;19.402;2022-07-29T16:09:10;33.68;38.26
63051;SHT30;49136;47.416;19.402;2022-07-29T16:11:36;33.57;39.37
63051;SHT30;49136;47.416;19.402;2022-07-29T16:14:02;33.29;37.82
63051;SHT30;49136;47.416;19.402;2022-07-29T16:16:27;33.32;40.08
63051;SHT30;49136;47.416;19.402;2022-07-29T16:18:53;33.02;38.82
63051;SHT30;49136;47.416;19.402;2022-07-29T16:21:18;32.87;38.36